Time;durP1;ratioP1;P1;durP2;ratioP2;P2;SDS_P1;SDS_P2;PMS_P1;PMS_P2;Temp;Humidity;BMP_temperature;BMP_pressure;BME280_temperature;BME280_humidity;BME280_pressure;Samples;Min_cycle;Max_cycle;Signal;HPM_P1;HPM_P2
2022/08/11 00:00:56;;;;;;;;;;;17.20;99.90;;;;;;5135015;27;20014;-76
2022/08/11 00:03:22;;;;;;;;;;;17.10;99.90;;;;;;5115849;27;19924;-76
2022/08/11 00:05:55;;;;;;;;;;;16.90;99.90;;;;;;5134902;27;20543;-77
2022/08/11 00:08:24;;;;;;;;;;;17.00;99.90;;;;;;5134869;27;19923;-76
2022/08/11 00:10:51;;;;;;;;;;;16.80;99.90;;;;;;5134762;27;19931;-78
2022/08/11 00:13:17;;;;;;;;;;;16.80;99.90;;;;;;5134750;27;20298;-76
2022/08/11 00:15:44;;;;;;;;;;;16.80;99.90;;;;;;5134935;27;20014;-76
2022/08/11 00:18:11;;;;;;;;;;;16.80;99.90;;;;;;5134756;27;19943;-75
2022/08/11 00:20:42;;;;;;;;;;;16.70;99.90;;;;;;5134795;27;19930;-77
2022/08/11 00:23:09;;;;;;;;;;;16.60;99.90;;;;;;5134520;27;19953;-75
2022/08/11 00:25:47;;;;;;;;;;;16.60;99.90;;;;;;5134593;28;19931;-76
2022/08/11 00:28:30;;;;;;;;;;;16.70;99.90;;;;;;5134633;28;20378;-78
2022/08/11 00:31:06;;;;;;;;;;;16.60;99.90;;;;;;5134671;28;19924;-76
2022/08/11 00:33:41;;;;;;;;;;;16.70;99.90;;;;;;5134623;28;20400;-77
2022/08/11 00:36:07;;;;;;;;;;;15.60;99.90;;;;;;5134361;28;19966;-76
2022/08/11 00:38:35;;;;;;;;;;;16.60;99.90;;;;;;5134623;28;20014;-76
2022/08/11 00:41:04;;;;;;;;;;;16.50;99.90;;;;;;5134678;28;19978;-76
2022/08/11 00:43:29;;;;;;;;;;;16.60;99.90;;;;;;5134436;28;19927;-76
2022/08/11 00:46:07;;;;;;;;;;;16.70;99.90;;;;;;5150641;27;20346;-76
2022/08/11 00:48:39;;;;;;;;;;;16.50;99.90;;;;;;5135422;27;20360;-78
2022/08/11 00:51:23;;;;;;;;;;;16.50;99.90;;;;;;5138716;27;19927;-76
2022/08/11 00:53:54;;;;;;;;;;;16.40;99.90;;;;;;5138567;27;19923;-76
2022/08/11 00:56:23;;;;;;;;;;;16.40;99.90;;;;;;5138523;27;19927;-76
2022/08/11 00:58:51;;;;;;;;;;;16.30;99.90;;;;;;5120223;27;19946;-76
2022/08/11 01:01:17;;;;;;;;;;;16.30;99.90;;;;;;5154893;27;19967;-76
2022/08/11 01:03:48;;;;;;;;;;;16.20;99.90;;;;;;5138492;27;20416;-75
2022/08/11 01:06:14;;;;;;;;;;;16.10;99.90;;;;;;5138348;27;19928;-77
2022/08/11 01:08:57;;;;;;;;;;;16.10;99.90;;;;;;5138188;27;20033;-77
2022/08/11 01:11:35;;;;;;;;;;;16.20;99.90;;;;;;5120092;27;19930;-76
2022/08/11 01:14:13;;;;;;;;;;;16.20;99.90;;;;;;5137868;27;20296;-75
2022/08/11 01:16:56;;;;;;;;;;;16.20;99.90;;;;;;5138218;27;19967;-77
2022/08/11 01:19:31;;;;;;;;;;;16.20;99.90;;;;;;5138047;27;19923;-75
2022/08/11 01:22:15;;;;;;;;;;;16.10;99.90;;;;;;5154219;27;19924;-77
2022/08/11 01:24:50;;;;;;;;;;;16.00;99.90;;;;;;5138181;27;19923;-77
2022/08/11 01:27:18;;;;;;;;;;;15.90;99.90;;;;;;5137909;27;19974;-77
2022/08/11 01:30:03;;;;;;;;;;;16.00;99.90;;;;;;5137931;27;20010;-77
2022/08/11 01:32:31;;;;;;;;;;;16.00;99.90;;;;;;5119733;27;19923;-76
2022/08/11 01:35:20;;;;;;;;;;;16.00;99.90;;;;;;5137691;27;19923;-76
2022/08/11 01:38:04;;;;;;;;;;;16.00;99.90;;;;;;5154082;27;19931;-76
2022/08/11 01:40:48;;;;;;;;;;;15.80;99.90;;;;;;5137646;27;19924;-76
2022/08/11 01:46:15;;;;;;;;;;;15.70;99.90;;;;;;5137626;27;19930;-76
2022/08/11 01:48:43;;;;;;;;;;;15.60;99.90;;;;;;5137503;27;19962;-77
2022/08/11 01:51:29;;;;;;;;;;;15.60;99.90;;;;;;5119416;27;19923;-75
2022/08/11 01:53:57;;;;;;;;;;;15.50;99.90;;;;;;5119513;27;19966;-74
2022/08/11 01:56:41;;;;;;;;;;;15.50;99.90;;;;;;5119443;27;19962;-75
2022/08/11 01:59:22;;;;;;;;;;;15.60;99.90;;;;;;5136613;27;20283;-75
2022/08/11 02:01:49;;;;;;;;;;;15.60;99.90;;;;;;5137034;27;19924;-77
2022/08/11 02:04:20;;;;;;;;;;;15.60;99.90;;;;;;5137275;27;19960;-75
2022/08/11 02:06:55;;;;;;;;;;;15.60;99.90;;;;;;5152621;27;20017;-75
2022/08/11 02:09:42;;;;;;;;;;;15.60;99.90;;;;;;5137340;27;19970;-76
2022/08/11 02:12:20;;;;;;;;;;;15.60;99.90;;;;;;5136828;27;19923;-74
2022/08/11 02:14:58;;;;;;;;;;;15.60;99.90;;;;;;5136814;27;19923;-76
2022/08/11 02:17:55;;;;;;;;;;;15.70;99.90;;;;;;5137117;27;20374;-75
2022/08/11 02:25:51;;;;;;;;;;;15.60;99.90;;;;;;5093692;28;20305;-76
2022/08/11 02:28:28;;;;;;;;;;;15.60;99.90;;;;;;5093503;28;19935;-77
2022/08/11 02:33:21;;;;;;;;;;;15.60;99.90;;;;;;5093526;28;20009;-77
2022/08/11 02:33:41;;;;;;;;;;;15.60;99.90;;;;;;5093448;28;19928;-76
2022/08/11 02:36:09;;;;;;;;;;;15.40;99.90;;;;;;5093067;28;20410;-75
2022/08/11 02:38:46;;;;;;;;;;;15.70;99.90;;;;;;5093276;28;19928;-75
2022/08/11 02:44:20;;;;;;;;;;;15.60;99.90;;;;;;5092997;28;19946;-75
2022/08/11 02:46:48;;;;;;;;;;;15.60;99.90;;;;;;5093265;28;20014;-76
2022/08/11 02:52:07;;;;;;;;;;;15.40;99.90;;;;;;5093098;28;19924;-76
2022/08/11 02:54:50;;;;;;;;;;;15.30;99.90;;;;;;5093163;28;19935;-76
2022/08/11 02:57:39;;;;;;;;;;;14.60;99.90;;;;;;5136209;27;19927;-77
2022/08/11 03:00:06;;;;;;;;;;;15.20;99.90;;;;;;5136045;27;20373;-77
2022/08/11 03:02:40;;;;;;;;;;;15.20;99.90;;;;;;5135873;27;19930;-76
2022/08/11 03:05:10;;;;;;;;;;;14.30;99.90;;;;;;5135799;27;20373;-75
2022/08/11 03:07:39;;;;;;;;;;;15.10;99.90;;;;;;5135997;27;19925;-76
2022/08/11 03:10:04;;;;;;;;;;;15.10;99.90;;;;;;5136005;27;20026;-76
2022/08/11 03:18:25;;;;;;;;;;;14.90;99.90;;;;;;5135800;27;19968;-75
2022/08/11 03:20:55;;;;;;;;;;;14.90;99.90;;;;;;5117627;27;19923;-75
2022/08/11 03:23:34;;;;;;;;;;;14.90;99.90;;;;;;5135650;27;19924;-75
2022/08/11 03:26:02;;;;;;;;;;;14.90;99.90;;;;;;5135484;27;19948;-76
2022/08/11 03:28:34;;;;;;;;;;;14.90;99.90;;;;;;5135663;27;19930;-76
2022/08/11 03:31:23;;;;;;;;;;;14.80;99.90;;;;;;5135528;27;19927;-76
2022/08/11 03:34:02;;;;;;;;;;;14.80;99.90;;;;;;5135489;27;19965;-76
2022/08/11 03:36:50;;;;;;;;;;;14.80;99.90;;;;;;5135127;27;19930;-76
2022/08/11 03:39:22;;;;;;;;;;;14.80;99.90;;;;;;5135457;27;19927;-76
2022/08/11 03:41:54;;;;;;;;;;;14.90;99.90;;;;;;5135203;27;20437;-77
2022/08/11 03:44:26;;;;;;;;;;;14.90;99.90;;;;;;5116878;27;19923;-75
2022/08/11 03:46:51;;;;;;;;;;;14.90;99.90;;;;;;5135082;27;19923;-76
2022/08/11 03:49:32;;;;;;;;;;;14.90;99.90;;;;;;5135308;27;19924;-76
2022/08/11 03:51:58;;;;;;;;;;;14.60;99.90;;;;;;5135214;27;19981;-76
2022/08/11 03:54:38;;;;;;;;;;;14.80;99.90;;;;;;5135114;27;19967;-76
2022/08/11 03:57:07;;;;;;;;;;;14.70;99.90;;;;;;5134967;27;19927;-75
2022/08/11 04:00:10;;;;;;;;;;;14.80;99.90;;;;;;5134691;27;20390;-75
2022/08/11 04:02:35;;;;;;;;;;;14.80;99.90;;;;;;5091700;28;20341;-75
2022/08/11 04:05:10;;;;;;;;;;;14.80;99.90;;;;;;5091753;28;19924;-76
2022/08/11 04:07:54;;;;;;;;;;;14.80;99.90;;;;;;5091876;28;20309;-77
2022/08/11 04:10:37;;;;;;;;;;;14.90;99.90;;;;;;5091655;28;19928;-76
2022/08/11 04:13:34;;;;;;;;;;;14.90;99.90;;;;;;5091494;28;19931;-76
2022/08/11 04:16:00;;;;;;;;;;;15.00;99.90;;;;;;5091693;28;20019;-76
2022/08/11 04:18:52;;;;;;;;;;;15.10;99.90;;;;;;5091614;28;19977;-75
2022/08/11 04:21:36;;;;;;;;;;;15.00;99.90;;;;;;5034502;28;19932;-75
2022/08/11 04:24:21;;;;;;;;;;;14.90;99.90;;;;;;5051066;28;19925;-76
2022/08/11 04:27:06;;;;;;;;;;;14.80;99.90;;;;;;5051251;28;19925;-75
2022/08/11 04:29:41;;;;;;;;;;;14.70;99.90;;;;;;5051207;28;19994;-76
2022/08/11 04:32:32;;;;;;;;;;;14.60;99.90;;;;;;5034553;28;20405;-76
2022/08/11 04:35:07;;;;;;;;;;;14.50;99.90;;;;;;5049011;28;19973;-77
2022/08/11 04:37:35;;;;;;;;;;;14.40;99.90;;;;;;5069350;28;19939;-77
2022/08/11 04:40:19;;;;;;;;;;;14.40;99.90;;;;;;5071222;28;19924;-75
2022/08/11 04:43:21;;;;;;;;;;;14.40;99.90;;;;;;5071012;28;19970;-77
2022/08/11 04:46:13;;;;;;;;;;;14.50;99.90;;;;;;5071102;28;19931;-76
2022/08/11 05:01:39;;;;;;;;;;;14.70;99.90;;;;;;5031179;28;20055;-76
2022/08/11 05:04:02;;;;;;;;;;;15.30;99.90;;;;;;5050813;28;20014;-75
2022/08/11 05:07:00;;;;;;;;;;;15.40;99.90;;;;;;5051017;28;19928;-77
2022/08/11 05:09:33;;;;;;;;;;;15.50;99.90;;;;;;5011277;28;20035;-76
2022/08/11 05:12:04;;;;;;;;;;;15.60;99.90;;;;;;4994818;28;19926;-76
2022/08/11 05:34:52;;;;;;;;;;;16.10;99.90;;;;;;4879329;29;20443;-76
2022/08/11 05:37:19;;;;;;;;;;;16.10;99.90;;;;;;4899211;29;19928;-76
2022/08/11 05:56:33;;;;;;;;;;;16.50;99.90;;;;;;5034106;28;19932;-75
2022/08/11 05:58:58;;;;;;;;;;;16.60;99.90;;;;;;5052651;27;20405;-76
2022/08/11 06:01:25;;;;;;;;;;;16.70;99.90;;;;;;5137014;27;19928;-77
2022/08/11 06:06:39;;;;;;;;;;;16.80;99.90;;;;;;5137181;27;20014;-75
2022/08/11 06:09:05;;;;;;;;;;;16.90;99.90;;;;;;5137195;27;20025;-77
2022/08/11 06:11:36;;;;;;;;;;;16.90;99.90;;;;;;5137107;27;19970;-76
2022/08/11 06:14:02;;;;;;;;;;;17.00;99.90;;;;;;5137235;27;19931;-76
2022/08/11 06:16:28;;;;;;;;;;;17.00;99.90;;;;;;5137146;27;19923;-78
2022/08/11 06:18:54;;;;;;;;;;;17.10;99.90;;;;;;5137067;27;20398;-76
2022/08/11 06:21:20;;;;;;;;;;;17.20;99.90;;;;;;5136893;27;19931;-76
2022/08/11 06:23:46;;;;;;;;;;;17.20;99.90;;;;;;5136845;27;19971;-76
2022/08/11 06:26:12;;;;;;;;;;;17.50;99.90;;;;;;5136886;27;19968;-77
2022/08/11 06:28:39;;;;;;;;;;;17.40;99.90;;;;;;5117446;27;20418;-77
2022/08/11 06:31:31;;;;;;;;;;;17.40;99.90;;;;;;5136777;27;19930;-77
2022/08/11 06:34:09;;;;;;;;;;;17.50;99.90;;;;;;5134269;27;19981;-76
2022/08/11 06:36:38;;;;;;;;;;;17.60;99.90;;;;;;5136186;27;20049;-76
2022/08/11 06:39:04;;;;;;;;;;;17.60;99.90;;;;;;5152439;27;19935;-76
2022/08/11 06:41:37;;;;;;;;;;;17.70;99.90;;;;;;5136586;27;19928;-76
2022/08/11 06:44:09;;;;;;;;;;;17.70;99.90;;;;;;5136542;27;19924;-77
2022/08/11 06:46:37;;;;;;;;;;;17.90;99.90;;;;;;5136345;27;19923;-75
2022/08/11 06:49:05;;;;;;;;;;;18.00;99.90;;;;;;5118306;27;19923;-76
2022/08/11 06:51:32;;;;;;;;;;;17.30;99.90;;;;;;5136174;27;20432;-76
2022/08/11 06:53:59;;;;;;;;;;;18.10;99.90;;;;;;5136097;27;19963;-76
2022/08/11 07:02:06;;;;;;;;;;;18.30;99.90;;;;;;5135954;27;19996;-75
2022/08/11 07:04:48;;;;;;;;;;;18.40;99.90;;;;;;5135844;27;20002;-77
2022/08/11 07:15:50;;;;;;;;;;;18.80;99.90;;;;;;5151404;27;20042;-78
2022/08/11 07:29:28;;;;;;;;;;;19.30;99.90;;;;;;5135279;27;20404;-76
2022/08/11 07:31:53;;;;;;;;;;;19.40;99.90;;;;;;5135307;27;20381;-76
2022/08/11 07:34:19;;;;;;;;;;;19.50;99.90;;;;;;5135205;27;19931;-75
2022/08/11 07:36:48;;;;;;;;;;;19.50;99.90;;;;;;5135469;27;19927;-78
2022/08/11 07:39:32;;;;;;;;;;;19.60;99.90;;;;;;5135400;27;19923;-77
2022/08/11 07:41:59;;;;;;;;;;;19.70;99.90;;;;;;5116710;27;20029;-75
2022/08/11 07:44:28;;;;;;;;;;;19.80;99.90;;;;;;5135025;27;19927;-75
2022/08/11 07:52:31;;;;;;;;;;;20.00;99.90;;;;;;5135437;27;19977;-74
2022/08/11 07:55:02;;;;;;;;;;;20.20;99.90;;;;;;5133683;27;19931;-74
2022/08/11 08:19:25;;;;;;;;;;;21.00;99.90;;;;;;5134726;27;19931;-74
2022/08/11 08:21:51;;;;;;;;;;;21.00;99.90;;;;;;5115047;28;19924;-74
2022/08/11 08:24:18;;;;;;;;;;;21.10;99.90;;;;;;5134496;27;19930;-76
2022/08/11 08:26:57;;;;;;;;;;;21.20;99.90;;;;;;5134823;27;20065;-76
2022/08/11 08:32:07;;;;;;;;;;;21.40;99.90;;;;;;5134686;28;19976;-75
2022/08/11 08:34:34;;;;;;;;;;;21.50;99.90;;;;;;5134292;28;20412;-76
2022/08/11 08:37:00;;;;;;;;;;;21.60;99.90;;;;;;5134413;28;20378;-74
2022/08/11 08:39:25;;;;;;;;;;;21.70;99.90;;;;;;5115290;28;19969;-74
2022/08/11 08:41:55;;;;;;;;;;;21.80;99.90;;;;;;5116473;28;19924;-74
2022/08/11 08:44:22;;;;;;;;;;;21.60;99.90;;;;;;5134447;28;19923;-74
2022/08/11 08:46:50;;;;;;;;;;;22.10;99.90;;;;;;5134490;28;20020;-74
2022/08/11 08:49:17;;;;;;;;;;;22.20;99.90;;;;;;5134406;28;19966;-75
2022/08/11 08:51:45;;;;;;;;;;;22.20;99.90;;;;;;5116555;28;20259;-77
2022/08/11 08:54:16;;;;;;;;;;;22.30;99.90;;;;;;5134598;28;19930;-74
2022/08/11 08:56:43;;;;;;;;;;;22.40;99.90;;;;;;5134605;27;19989;-75
2022/08/11 08:59:11;;;;;;;;;;;22.50;99.90;;;;;;5161738;27;19979;-75
2022/08/11 09:01:41;;;;;;;;;;;22.60;99.90;;;;;;5153081;27;19923;-75
2022/08/11 09:04:10;;;;;;;;;;;22.70;99.90;;;;;;5157314;27;19923;-74
2022/08/11 09:06:38;;;;;;;;;;;22.80;99.90;;;;;;5175633;27;20382;-72
2022/08/11 09:09:07;;;;;;;;;;;22.90;99.90;;;;;;5176189;27;19923;-74
2022/08/11 09:11:52;;;;;;;;;;;23.00;99.90;;;;;;5179986;27;20392;-75
2022/08/11 09:14:20;;;;;;;;;;;23.10;99.90;;;;;;5161191;27;20009;-76
2022/08/11 09:16:47;;;;;;;;;;;23.20;99.90;;;;;;5179639;27;19967;-76
2022/08/11 09:19:16;;;;;;;;;;;23.20;99.90;;;;;;5179805;27;19929;-76
2022/08/11 09:21:43;;;;;;;;;;;23.30;99.90;;;;;;5179698;27;20305;-74
2022/08/11 09:27:01;;;;;;;;;;;23.50;99.90;;;;;;5179581;27;20007;-74
2022/08/11 09:29:28;;;;;;;;;;;23.60;99.90;;;;;;5179630;27;19927;-75
2022/08/11 09:31:54;;;;;;;;;;;23.70;99.90;;;;;;5179594;27;19923;-74
2022/08/11 09:34:20;;;;;;;;;;;23.90;99.90;;;;;;5179277;27;19930;-74
2022/08/11 09:42:19;;;;;;;;;;;24.20;99.90;;;;;;5172760;27;20299;-75
2022/08/11 09:44:48;;;;;;;;;;;24.30;99.90;;;;;;5168902;27;19927;-75
2022/08/11 09:47:24;;;;;;;;;;;24.40;99.90;;;;;;5179217;27;19929;-74
2022/08/11 09:49:52;;;;;;;;;;;24.40;99.90;;;;;;5167934;27;19930;-75
2022/08/11 09:52:18;;;;;;;;;;;24.50;99.90;;;;;;5157997;27;19930;-77
2022/08/11 09:54:46;;;;;;;;;;;24.60;99.90;;;;;;5158298;27;19946;-75
2022/08/11 09:59:56;;;;;;;;;;;24.80;99.90;;;;;;5174071;27;20022;-76
2022/08/11 10:02:26;;;;;;;;;;;24.90;99.90;;;;;;5139621;27;20014;-76
2022/08/11 10:07:00;;;;;;;;;;;25.00;99.90;;;;;;5139506;27;19923;-74
2022/08/11 10:07:40;;;;;;;;;;;25.10;99.90;;;;;;5157975;27;19923;-77
2022/08/11 10:10:06;;;;;;;;;;;25.20;99.90;;;;;;5139658;27;19974;-77
2022/08/11 10:12:36;;;;;;;;;;;25.30;99.90;;;;;;5157827;27;19968;-75
2022/08/11 10:20:40;;;;;;;;;;;25.60;99.90;;;;;;5157250;27;19966;-76
2022/08/11 10:28:35;;;;;;;;;;;25.70;99.40;;;;;;5157595;27;19936;-75
2022/08/11 10:33:59;;;;;;;;;;;25.90;99.90;;;;;;5157356;27;19923;-76
2022/08/11 10:36:26;;;;;;;;;;;26.00;92.30;;;;;;5157519;27;19927;-75
2022/08/11 10:38:51;;;;;;;;;;;25.90;99.90;;;;;;5157674;27;19927;-76
2022/08/11 10:44:03;;;;;;;;;;;26.00;97.50;;;;;;5157117;27;20026;-75
2022/08/11 10:49:14;;;;;;;;;;;26.10;93.70;;;;;;5157248;27;19927;-75
2022/08/11 10:59:53;;;;;;;;;;;26.20;99.60;;;;;;5139463;27;19935;-75
2022/08/11 11:02:20;;;;;;;;;;;26.20;99.90;;;;;;5148627;27;19931;-76
2022/08/11 11:04:52;;;;;;;;;;;26.30;99.90;;;;;;5148718;27;19923;-78
2022/08/11 11:07:22;;;;;;;;;;;26.30;95.00;;;;;;5151008;27;19926;-76
2022/08/11 11:10:00;;;;;;;;;;;26.30;78.30;;;;;;5148900;27;20383;-77
2022/08/11 11:18:05;;;;;;;;;;;26.30;81.70;;;;;;5156522;27;19931;-76
2022/08/11 11:20:30;;;;;;;;;;;26.30;88.00;;;;;;5156226;27;19923;-77
2022/08/11 11:23:00;;;;;;;;;;;26.30;93.40;;;;;;5156120;27;19923;-77
2022/08/11 11:25:35;;;;;;;;;;;26.30;72.60;;;;;;5138005;27;19923;-76
2022/08/11 11:28:00;;;;;;;;;;;26.30;87.90;;;;;;5137732;27;20259;-76
2022/08/11 11:30:31;;;;;;;;;;;26.40;91.10;;;;;;5156210;27;19929;-77
2022/08/11 11:33:17;;;;;;;;;;;26.30;76.80;;;;;;5155362;27;19974;-77
2022/08/11 11:35:48;;;;;;;;;;;26.40;83.40;;;;;;5156201;27;19930;-79
2022/08/11 11:38:14;;;;;;;;;;;26.30;71.20;;;;;;5137917;27;19930;-77
2022/08/11 11:40:40;;;;;;;;;;;26.30;73.80;;;;;;5156158;27;20308;-79
2022/08/11 11:43:06;;;;;;;;;;;26.40;82.20;;;;;;5156085;27;19923;-76
2022/08/11 11:45:32;;;;;;;;;;;26.40;79.70;;;;;;5155923;27;20373;-79
2022/08/11 11:47:58;;;;;;;;;;;26.40;81.40;;;;;;5155791;27;19944;-76
2022/08/11 11:50:25;;;;;;;;;;;26.40;78.30;;;;;;5156294;27;20436;-77
2022/08/11 11:52:52;;;;;;;;;;;26.30;82.10;;;;;;5155994;27;19927;-79
2022/08/11 11:55:19;;;;;;;;;;;26.40;77.20;;;;;;5155762;27;19923;-76
2022/08/11 12:03:14;;;;;;;;;;;26.50;72.80;;;;;;5155687;27;19923;-77
2022/08/11 12:05:40;;;;;;;;;;;26.40;69.30;;;;;;5155701;27;19930;-78
2022/08/11 12:08:11;;;;;;;;;;;26.50;66.50;;;;;;5155655;27;19967;-78
2022/08/11 12:10:38;;;;;;;;;;;26.50;71.70;;;;;;5155601;27;20003;-77
2022/08/11 12:15:49;;;;;;;;;;;26.50;72.20;;;;;;5155591;27;20305;-78
2022/08/11 12:18:15;;;;;;;;;;;26.50;74.20;;;;;;5155464;27;19927;-77
2022/08/11 12:20:41;;;;;;;;;;;26.50;79.60;;;;;;5171689;27;20394;-78
2022/08/11 12:28:57;;;;;;;;;;;26.60;69.60;;;;;;5155300;27;20467;-76
2022/08/11 12:31:24;;;;;;;;;;;26.60;64.40;;;;;;5155314;27;19930;-76
2022/08/11 12:33:50;;;;;;;;;;;26.60;66.40;;;;;;5155238;27;19925;-80
2022/08/11 12:36:16;;;;;;;;;;;26.60;69.20;;;;;;5155193;27;20347;-77
2022/08/11 12:38:48;;;;;;;;;;;26.70;69.30;;;;;;5154096;27;19993;-76
2022/08/11 12:46:47;;;;;;;;;;;26.70;64.80;;;;;;5159247;27;19929;-77
2022/08/11 12:52:03;;;;;;;;;;;26.80;67.40;;;;;;5143670;27;19930;-77
2022/08/11 12:54:33;;;;;;;;;;;26.90;69.70;;;;;;5159271;27;19923;-76
2022/08/11 13:05:18;;;;;;;;;;;27.00;65.90;;;;;;5175475;27;20385;-77
2022/08/11 13:07:44;;;;;;;;;;;27.00;66.20;;;;;;5158976;27;19923;-77
2022/08/11 13:10:13;;;;;;;;;;;27.00;67.30;;;;;;5158898;27;20430;-76
2022/08/11 13:12:48;;;;;;;;;;;27.00;66.10;;;;;;5158014;27;20386;-77
2022/08/11 13:15:17;;;;;;;;;;;27.00;64.70;;;;;;5158902;27;19923;-78
2022/08/11 13:17:43;;;;;;;;;;;27.00;65.80;;;;;;5158824;27;20434;-77
2022/08/11 13:20:09;;;;;;;;;;;27.00;63.90;;;;;;5140314;27;20270;-76
2022/08/11 13:22:35;;;;;;;;;;;27.00;66.10;;;;;;5158906;27;19927;-76
2022/08/11 13:25:02;;;;;;;;;;;26.90;65.60;;;;;;5158873;27;19975;-76
2022/08/11 13:27:27;;;;;;;;;;;26.90;65.00;;;;;;5122952;27;20335;-78
2022/08/11 13:31:09;;;;;;;;;;;27.00;68.90;;;;;;5158569;27;19923;-77
2022/08/11 13:32:40;;;;;;;;;;;27.00;65.70;;;;;;5158631;27;19988;-77
2022/08/11 13:35:06;;;;;;;;;;;27.00;68.50;;;;;;5158380;27;19923;-76
2022/08/11 13:37:33;;;;;;;;;;;27.00;64.80;;;;;;5158662;27;19975;-78
2022/08/11 13:40:00;;;;;;;;;;;27.00;65.80;;;;;;5158364;27;19923;-78
2022/08/11 13:42:26;;;;;;;;;;;27.10;66.80;;;;;;5158255;27;19930;-78
2022/08/11 13:44:52;;;;;;;;;;;27.10;67.60;;;;;;5139895;27;19923;-77
2022/08/11 13:47:20;;;;;;;;;;;27.10;65.10;;;;;;5158274;27;20014;-76
2022/08/11 13:49:46;;;;;;;;;;;27.10;63.60;;;;;;5158183;27;20377;-77
2022/08/11 13:52:13;;;;;;;;;;;27.10;66.10;;;;;;5158316;27;19966;-77
2022/08/11 13:54:39;;;;;;;;;;;27.20;66.10;;;;;;5157866;27;20009;-77
2022/08/11 13:57:06;;;;;;;;;;;27.20;64.60;;;;;;5156724;27;19934;-77
2022/08/11 13:59:32;;;;;;;;;;;27.20;64.60;;;;;;5158045;27;19923;-76
2022/08/11 14:02:02;;;;;;;;;;;27.10;63.60;;;;;;5157950;27;20396;-77
2022/08/11 14:04:34;;;;;;;;;;;27.20;63.80;;;;;;5157755;27;20403;-76
2022/08/11 14:07:04;;;;;;;;;;;27.20;66.50;;;;;;5158111;27;20350;-77
2022/08/11 14:09:33;;;;;;;;;;;27.20;64.00;;;;;;5157834;27;19930;-77
2022/08/11 14:14:48;;;;;;;;;;;27.20;63.90;;;;;;5157606;27;19930;-77
2022/08/11 14:17:16;;;;;;;;;;;27.30;62.30;;;;;;5157901;27;19985;-79
2022/08/11 14:19:43;;;;;;;;;;;27.30;60.60;;;;;;5157798;27;19946;-76
2022/08/11 14:22:10;;;;;;;;;;;27.30;58.50;;;;;;5157615;27;19930;-76
2022/08/11 14:24:40;;;;;;;;;;;27.30;60.70;;;;;;5156749;27;19966;-79
2022/08/11 14:27:07;;;;;;;;;;;27.30;61.50;;;;;;5157519;27;19927;-78
2022/08/11 14:29:37;;;;;;;;;;;27.30;60.80;;;;;;5157291;27;19938;-76
2022/08/11 14:32:12;;;;;;;;;;;27.30;62.30;;;;;;5157442;27;19965;-77
2022/08/11 14:34:39;;;;;;;;;;;27.40;62.40;;;;;;5157289;27;19945;-77
2022/08/11 14:37:07;;;;;;;;;;;27.40;60.50;;;;;;5139147;27;19934;-77
2022/08/11 14:39:37;;;;;;;;;;;27.40;61.50;;;;;;5138844;27;19923;-76
2022/08/11 14:47:39;;;;;;;;;;;27.40;59.70;;;;;;5157123;27;19948;-77
2022/08/11 14:50:07;;;;;;;;;;;27.40;61.00;;;;;;5138986;27;19931;-77
2022/08/11 14:52:36;;;;;;;;;;;27.50;59.70;;;;;;5156949;27;19923;-77
2022/08/11 14:57:46;;;;;;;;;;;27.40;59.80;;;;;;5156957;27;19974;-78
2022/08/11 15:00:17;;;;;;;;;;;27.50;60.80;;;;;;5156834;27;19923;-79
2022/08/11 15:05:29;;;;;;;;;;;27.50;57.60;;;;;;5156816;27;19927;-75
2022/08/11 15:07:56;;;;;;;;;;;27.50;58.30;;;;;;5172570;27;19931;-77
2022/08/11 15:10:22;;;;;;;;;;;27.50;60.00;;;;;;5156622;27;19923;-76
2022/08/11 15:12:48;;;;;;;;;;;27.60;58.70;;;;;;5156704;27;19930;-78
2022/08/11 15:18:00;;;;;;;;;;;27.60;58.90;;;;;;5156402;27;19983;-76
2022/08/11 15:37:25;;;;;;;;;;;27.90;59.70;;;;;;5112791;28;20398;-77
2022/08/11 15:37:25;;;;;;;;;;;28.20;57.40;;;;;;5112703;28;19931;-76
2022/08/11 15:45:49;;;;;;;;;;;28.30;58.80;;;;;;5112458;28;19924;-75
2022/08/11 15:48:19;;;;;;;;;;;28.30;58.70;;;;;;5112532;28;19923;-78
2022/08/11 15:50:47;;;;;;;;;;;28.40;58.70;;;;;;5112460;28;20022;-77
2022/08/11 15:53:21;;;;;;;;;;;28.40;58.90;;;;;;5112449;28;20349;-76
2022/08/11 15:55:47;;;;;;;;;;;28.40;58.10;;;;;;5112388;28;20453;-78
2022/08/11 16:06:32;;;;;;;;;;;28.60;56.90;;;;;;5151220;27;19927;-76
2022/08/11 16:09:02;;;;;;;;;;;28.70;58.50;;;;;;5135117;27;19924;-76
2022/08/11 16:11:28;;;;;;;;;;;28.70;60.40;;;;;;5134898;27;19963;-79
2022/08/11 16:16:40;;;;;;;;;;;28.80;59.80;;;;;;5150883;27;19988;-76
2022/08/11 16:19:09;;;;;;;;;;;28.80;59.60;;;;;;5134638;27;19930;-77
2022/08/11 16:21:38;;;;;;;;;;;28.80;58.40;;;;;;5134921;27;19932;-77
2022/08/11 16:24:05;;;;;;;;;;;28.80;58.40;;;;;;5134668;27;19923;-77
2022/08/11 16:26:31;;;;;;;;;;;28.80;57.70;;;;;;5134748;27;19976;-78
2022/08/11 16:28:58;;;;;;;;;;;28.40;57.70;;;;;;5134670;27;20056;-76
2022/08/11 16:31:24;;;;;;;;;;;28.90;59.10;;;;;;5134427;28;20059;-77
2022/08/11 16:33:51;;;;;;;;;;;28.90;57.90;;;;;;5116738;28;20382;-77
2022/08/11 16:39:02;;;;;;;;;;;28.80;58.30;;;;;;5134677;28;20373;-77
2022/08/11 16:47:02;;;;;;;;;;;28.70;58.80;;;;;;5130335;27;19944;-77
2022/08/11 16:49:30;;;;;;;;;;;28.80;59.10;;;;;;5117629;27;20303;-81
2022/08/11 16:51:56;;;;;;;;;;;28.70;59.60;;;;;;5115347;28;19934;-75
2022/08/11 16:54:21;;;;;;;;;;;28.60;59.70;;;;;;5126421;27;19924;-79
2022/08/11 16:56:51;;;;;;;;;;;28.60;60.40;;;;;;5121721;27;19931;-79
2022/08/11 16:59:19;;;;;;;;;;;28.50;60.70;;;;;;5124104;27;19928;-78
2022/08/11 17:01:51;;;;;;;;;;;28.60;59.80;;;;;;5129906;27;19963;-78
2022/08/11 17:16:11;;;;;;;;;;;28.40;60.60;;;;;;5124060;27;19924;-78
2022/08/11 17:18:45;;;;;;;;;;;28.40;61.60;;;;;;5122283;27;20305;-77
2022/08/11 17:21:16;;;;;;;;;;;28.30;61.40;;;;;;5119318;27;21231;-81
2022/08/11 17:23:50;;;;;;;;;;;28.20;62.10;;;;;;5126968;27;19924;-77
2022/08/11 17:26:17;;;;;;;;;;;28.10;61.90;;;;;;5154245;27;19934;-81
2022/08/11 17:28:43;;;;;;;;;;;28.10;62.70;;;;;;5126605;27;19924;-77
2022/08/11 17:36:43;;;;;;;;;;;27.80;62.70;;;;;;5149509;27;19924;-77
2022/08/11 17:39:10;;;;;;;;;;;27.70;63.60;;;;;;5158911;27;19988;-76
2022/08/11 17:49:50;;;;;;;;;;;27.40;63.00;;;;;;5137362;27;20393;-76
2022/08/11 18:00:30;;;;;;;;;;;27.20;64.40;;;;;;5137051;27;19931;-76
2022/08/11 18:05:42;;;;;;;;;;;27.00;65.90;;;;;;5136885;27;19976;-75
